Time;durP1;ratioP1;P1;durP2;ratioP2;P2;SDS_P1;SDS_P2;PMS_P1;PMS_P2;Temp;Humidity;BMP_temperature;BMP_pressure;BME280_temperature;BME280_humidity;BME280_pressure;Samples;Min_cycle;Max_cycle;Signal;HPM_P1;HPM_P2
2023/06/20 00:01:31;;;;;;;529.28;500.23;;;;;;;;;;5035263;28;20068;-56
2023/06/20 00:03:57;;;;;;;518.17;489.85;;;;;;;;;;5036645;28;20048;-58
2023/06/20 00:06:22;;;;;;;537.90;508.00;;;;;;;;;;5034502;28;20531;-57
2023/06/20 00:08:48;;;;;;;545.42;514.88;;;;;;;;;;5033020;28;20076;-57
2023/06/20 00:11:14;;;;;;;528.45;499.35;;;;;;;;;;5035851;28;20041;-69
2023/06/20 00:13:42;;;;;;;557.78;526.05;;;;;;;;;;5036884;28;20041;-70
2023/06/20 00:16:11;;;;;;;513.80;485.30;;;;;;;;;;5033997;28;20087;-70
2023/06/20 00:18:36;;;;;;;501.40;473.80;;;;;;;;;;5036630;28;20051;-71
2023/06/20 00:21:02;;;;;;;552.22;520.22;;;;;;;;;;5032781;28;20362;-72
2023/06/20 00:23:29;;;;;;;576.45;542.55;;;;;;;;;;5026500;28;20037;-68
2023/06/20 00:25:55;;;;;;;570.85;537.00;;;;;;;;;;5033374;28;20067;-67
2023/06/20 00:28:20;;;;;;;594.25;558.20;;;;;;;;;;5034100;28;20057;-67
2023/06/20 00:30:46;;;;;;;597.50;560.63;;;;;;;;;;5031638;28;20052;-67
2023/06/20 00:33:11;;;;;;;573.70;538.83;;;;;;;;;;5035148;28;20047;-68
2023/06/20 00:35:37;;;;;;;597.88;560.67;;;;;;;;;;5037360;28;20279;-68
2023/06/20 00:38:02;;;;;;;571.95;537.40;;;;;;;;;;5037353;28;20352;-68
2023/06/20 00:40:27;;;;;;;550.45;517.15;;;;;;;;;;5037948;28;20040;-67
2023/06/20 00:42:53;;;;;;;520.50;489.88;;;;;;;;;;5036748;28;20893;-67
2023/06/20 00:45:27;;;;;;;511.42;481.25;;;;;;;;;;5036786;28;20051;-65
2023/06/20 00:47:52;;;;;;;449.48;423.85;;;;;;;;;;5032601;28;20041;-68
2023/06/20 00:50:18;;;;;;;444.90;419.75;;;;;;;;;;5033197;28;20067;-65
2023/06/20 00:52:44;;;;;;;313.75;297.48;;;;;;;;;;5034601;28;20521;-65
2023/06/20 00:55:10;;;;;;;186.98;177.45;;;;;;;;;;5034079;28;20068;-69
2023/06/20 00:57:37;;;;;;;211.38;200.88;;;;;;;;;;5037237;28;20061;-68
2023/06/20 01:00:06;;;;;;;232.68;220.88;;;;;;;;;;5036281;28;20116;-65
2023/06/20 01:02:31;;;;;;;198.50;188.27;;;;;;;;;;5035690;28;20040;-66
2023/06/20 01:04:56;;;;;;;194.88;184.95;;;;;;;;;;5034115;28;20364;-66
2023/06/20 01:07:38;;;;;;;192.38;182.50;;;;;;;;;;5035799;28;20061;-66
2023/06/20 01:10:24;;;;;;;195.43;185.45;;;;;;;;;;5041374;28;20056;-66
2023/06/20 01:12:57;;;;;;;172.60;163.70;;;;;;;;;;5033711;28;20120;-66
2023/06/20 01:15:42;;;;;;;177.40;168.30;;;;;;;;;;5035633;28;20033;-66
2023/06/20 01:18:43;;;;;;;191.30;181.25;;;;;;;;;;5035378;28;20178;-66
2023/06/20 01:21:15;;;;;;;178.27;169.07;;;;;;;;;;5034436;28;20033;-65
2023/06/20 01:23:53;;;;;;;239.23;226.70;;;;;;;;;;5033039;28;20037;-65
2023/06/20 01:26:38;;;;;;;236.88;224.52;;;;;;;;;;5035760;28;20112;-65
2023/06/20 01:29:15;;;;;;;245.00;232.25;;;;;;;;;;5032036;28;20481;-66
2023/06/20 01:31:49;;;;;;;230.07;218.40;;;;;;;;;;5033247;28;20437;-65
2023/06/20 01:34:22;;;;;;;252.05;239.07;;;;;;;;;;5034259;28;20120;-65
2023/06/20 01:36:54;;;;;;;235.07;223.07;;;;;;;;;;5033554;28;20108;-65
2023/06/20 01:39:44;;;;;;;237.57;225.90;;;;;;;;;;5034979;28;20064;-65
2023/06/20 01:42:10;;;;;;;177.38;168.50;;;;;;;;;;5034289;28;20032;-66
2023/06/20 01:44:36;;;;;;;179.10;170.30;;;;;;;;;;5033964;28;20038;-69
2023/06/20 01:47:04;;;;;;;181.57;172.52;;;;;;;;;;5034619;28;20025;-69
2023/06/20 01:49:30;;;;;;;186.77;177.25;;;;;;;;;;5035133;28;20032;-69
2023/06/20 01:51:56;;;;;;;137.65;130.85;;;;;;;;;;5032352;28;20037;-69
2023/06/20 01:54:24;;;;;;;126.82;120.53;;;;;;;;;;5036880;28;20049;-69
2023/06/20 01:56:51;;;;;;;123.55;117.18;;;;;;;;;;5032310;28;20662;-65
2023/06/20 01:59:17;;;;;;;117.82;112.03;;;;;;;;;;5035998;28;20041;-69
2023/06/20 02:01:46;;;;;;;85.57;81.32;;;;;;;;;;5033708;28;20132;-65
2023/06/20 02:04:14;;;;;;;75.60;71.75;;;;;;;;;;5034450;28;20029;-65
2023/06/20 02:06:42;;;;;;;66.63;63.22;;;;;;;;;;5034885;28;20495;-65
2023/06/20 02:09:08;;;;;;;66.15;62.78;;;;;;;;;;5034296;28;20033;-65
2023/06/20 02:11:34;;;;;;;55.10;52.10;;;;;;;;;;5034371;28;20124;-66
2023/06/20 02:14:00;;;;;;;52.20;49.55;;;;;;;;;;5031295;28;20041;-66
2023/06/20 02:16:27;;;;;;;54.83;52.05;;;;;;;;;;5032927;28;20041;-65
2023/06/20 02:18:52;;;;;;;62.17;58.85;;;;;;;;;;5033871;28;20055;-65
2023/06/20 02:21:22;;;;;;;65.03;61.65;;;;;;;;;;5035649;28;20373;-66
2023/06/20 02:23:50;;;;;;;72.43;68.75;;;;;;;;;;5031070;28;20091;-66
2023/06/20 02:26:18;;;;;;;84.15;79.82;;;;;;;;;;5035430;28;20508;-70
2023/06/20 02:28:49;;;;;;;89.18;84.68;;;;;;;;;;5035525;28;20029;-69
2023/06/20 02:31:20;;;;;;;87.78;83.45;;;;;;;;;;5033406;28;20110;-69
2023/06/20 02:33:48;;;;;;;97.53;92.75;;;;;;;;;;5035099;28;20037;-69
2023/06/20 02:36:14;;;;;;;106.13;100.85;;;;;;;;;;5037221;28;20025;-68
2023/06/20 02:38:39;;;;;;;75.55;71.78;;;;;;;;;;5037151;28;20561;-69
2023/06/20 02:41:05;;;;;;;80.43;76.43;;;;;;;;;;5038120;28;20049;-69
2023/06/20 02:43:30;;;;;;;71.85;68.22;;;;;;;;;;5039405;28;20037;-69
2023/06/20 02:46:22;;;;;;;69.13;65.70;;;;;;;;;;5036592;28;20038;-69
2023/06/20 02:49:11;;;;;;;67.85;64.40;;;;;;;;;;5034697;28;20098;-69
2023/06/20 02:51:45;;;;;;;69.43;65.85;;;;;;;;;;5045782;28;20063;-70
2023/06/20 02:54:15;;;;;;;74.55;70.28;;;;;;;;;;5038259;28;20034;-68
2023/06/20 02:56:43;;;;;;;66.28;62.92;;;;;;;;;;5036690;28;20032;-69
2023/06/20 02:59:10;;;;;;;74.03;70.22;;;;;;;;;;5036348;28;20044;-69
2023/06/20 03:01:37;;;;;;;69.95;66.43;;;;;;;;;;5035382;28;20036;-69
2023/06/20 03:04:04;;;;;;;68.93;65.47;;;;;;;;;;5038051;28;20036;-69
2023/06/20 03:06:31;;;;;;;67.63;64.20;;;;;;;;;;5036196;28;20030;-69
2023/06/20 03:08:59;;;;;;;69.72;66.13;;;;;;;;;;5035923;28;20048;-69
2023/06/20 03:11:25;;;;;;;74.20;70.45;;;;;;;;;;5036989;28;20037;-69
2023/06/20 03:13:50;;;;;;;80.20;76.07;;;;;;;;;;5036913;28;20425;-69
2023/06/20 03:16:16;;;;;;;67.80;64.20;;;;;;;;;;5037043;28;20022;-69
2023/06/20 03:18:41;;;;;;;68.45;64.90;;;;;;;;;;5037066;28;20028;-69
2023/06/20 03:21:07;;;;;;;68.15;64.55;;;;;;;;;;5035591;28;20039;-69
2023/06/20 03:23:32;;;;;;;76.45;72.50;;;;;;;;;;5036394;28;20028;-69
2023/06/20 03:25:58;;;;;;;63.47;60.17;;;;;;;;;;5037782;28;20482;-69
2023/06/20 03:28:24;;;;;;;57.05;54.13;;;;;;;;;;5036613;28;20043;-68
2023/06/20 03:30:51;;;;;;;63.42;60.15;;;;;;;;;;5038145;28;20033;-65
2023/06/20 03:33:16;;;;;;;54.70;51.90;;;;;;;;;;5036679;28;20033;-65
2023/06/20 03:35:41;;;;;;;55.63;52.78;;;;;;;;;;5035194;28;20029;-65
2023/06/20 03:38:07;;;;;;;66.95;63.47;;;;;;;;;;5035070;28;20430;-65
2023/06/20 03:40:32;;;;;;;272.70;258.67;;;;;;;;;;5037447;28;20051;-66
2023/06/20 03:42:57;;;;;;;169.07;160.55;;;;;;;;;;5035293;28;20044;-65
2023/06/20 03:45:23;;;;;;;103.65;98.38;;;;;;;;;;5036626;28;20061;-65
2023/06/20 03:47:48;;;;;;;73.63;69.90;;;;;;;;;;5034352;28;20127;-66
2023/06/20 03:50:14;;;;;;;75.47;71.63;;;;;;;;;;5037415;28;20037;-66
2023/06/20 03:52:39;;;;;;;88.72;84.22;;;;;;;;;;5035779;28;20032;-66
2023/06/20 03:55:06;;;;;;;84.07;79.80;;;;;;;;;;5034471;28;20033;-66
2023/06/20 03:57:31;;;;;;;118.97;112.90;;;;;;;;;;5036612;28;20033;-66
2023/06/20 03:59:56;;;;;;;159.45;151.35;;;;;;;;;;5037740;28;20098;-66
2023/06/20 04:02:22;;;;;;;184.57;175.32;;;;;;;;;;5035693;28;20056;-66
2023/06/20 04:04:50;;;;;;;208.23;197.88;;;;;;;;;;5035032;28;20038;-66
2023/06/20 04:07:18;;;;;;;205.20;194.98;;;;;;;;;;5037806;28;20037;-68
2023/06/20 04:09:49;;;;;;;193.02;183.07;;;;;;;;;;5035063;28;20057;-69
2023/06/20 04:12:14;;;;;;;190.02;180.55;;;;;;;;;;5033753;28;20083;-69
2023/06/20 04:14:40;;;;;;;169.32;160.80;;;;;;;;;;5036861;28;20036;-69
2023/06/20 04:17:05;;;;;;;164.13;155.85;;;;;;;;;;5035360;28;20741;-69
2023/06/20 04:19:32;;;;;;;166.63;158.20;;;;;;;;;;5035583;28;20107;-69
2023/06/20 04:21:58;;;;;;;169.80;161.20;;;;;;;;;;5033565;28;20116;-70
2023/06/20 04:24:24;;;;;;;157.65;149.65;;;;;;;;;;5035354;28;20563;-66
2023/06/20 04:26:49;;;;;;;157.25;149.13;;;;;;;;;;5036027;28;20415;-67
2023/06/20 04:29:14;;;;;;;162.38;154.07;;;;;;;;;;5037022;28;20037;-67
2023/06/20 04:31:40;;;;;;;163.18;154.75;;;;;;;;;;5032502;28;20056;-67
2023/06/20 04:34:05;;;;;;;163.48;155.13;;;;;;;;;;5035253;28;20061;-66
2023/06/20 04:36:34;;;;;;;186.73;177.20;;;;;;;;;;5032257;28;20139;-66
2023/06/20 04:38:59;;;;;;;174.45;165.63;;;;;;;;;;5034543;28;20032;-67
2023/06/20 04:41:25;;;;;;;211.43;200.85;;;;;;;;;;5034102;28;20043;-66
2023/06/20 04:43:50;;;;;;;234.43;222.57;;;;;;;;;;5034084;28;20048;-67
2023/06/20 04:46:17;;;;;;;245.50;233.15;;;;;;;;;;5035513;28;20048;-67
2023/06/20 04:48:44;;;;;;;257.58;244.77;;;;;;;;;;5042921;28;20907;-67
2023/06/20 04:51:10;;;;;;;290.05;275.40;;;;;;;;;;5032393;28;20117;-67
2023/06/20 04:53:36;;;;;;;273.35;259.63;;;;;;;;;;5036247;28;20079;-66
2023/06/20 04:56:01;;;;;;;280.23;266.23;;;;;;;;;;5034079;28;20116;-67
2023/06/20 04:58:28;;;;;;;272.67;258.98;;;;;;;;;;5041771;28;20033;-68
2023/06/20 05:01:00;;;;;;;288.20;273.67;;;;;;;;;;5033406;28;20097;-65
2023/06/20 05:03:25;;;;;;;317.42;301.17;;;;;;;;;;5033573;28;20044;-66
2023/06/20 05:05:52;;;;;;;306.08;290.80;;;;;;;;;;5033652;28;20403;-64
2023/06/20 05:08:17;;;;;;;250.75;237.95;;;;;;;;;;5034798;28;20025;-65
2023/06/20 05:10:43;;;;;;;243.15;231.20;;;;;;;;;;5031767;28;20037;-65
2023/06/20 05:13:08;;;;;;;225.50;214.48;;;;;;;;;;5033863;28;20029;-66
2023/06/20 05:15:34;;;;;;;237.30;225.55;;;;;;;;;;5035844;28;20041;-65
2023/06/20 05:18:00;;;;;;;197.50;187.82;;;;;;;;;;5033703;28;20037;-65
2023/06/20 05:20:25;;;;;;;186.05;176.82;;;;;;;;;;5037035;28;20029;-64
2023/06/20 05:22:50;;;;;;;221.68;210.68;;;;;;;;;;5033079;28;20037;-73
2023/06/20 05:25:16;;;;;;;200.75;190.80;;;;;;;;;;5037439;28;20127;-74
2023/06/20 05:27:42;;;;;;;167.82;158.77;;;;;;;;;;5033990;28;20045;-63
2023/06/20 05:30:08;;;;;;;179.05;170.10;;;;;;;;;;5030737;28;20370;-63
2023/06/20 05:32:34;;;;;;;147.75;140.30;;;;;;;;;;5035418;28;20044;-64
2023/06/20 05:34:59;;;;;;;130.35;123.80;;;;;;;;;;5035941;28;20021;-64
2023/06/20 05:37:24;;;;;;;99.13;94.07;;;;;;;;;;5032057;28;20443;-64
2023/06/20 05:39:50;;;;;;;86.03;81.60;;;;;;;;;;5032778;28;20119;-64
2023/06/20 05:42:16;;;;;;;62.83;59.53;;;;;;;;;;5036879;28;20033;-64
2023/06/20 05:44:42;;;;;;;60.80;57.70;;;;;;;;;;5032895;28;20021;-64
2023/06/20 05:47:07;;;;;;;72.15;68.53;;;;;;;;;;5041747;28;20033;-64
2023/06/20 05:49:33;;;;;;;65.75;62.30;;;;;;;;;;5034660;28;20030;-63
2023/06/20 05:51:58;;;;;;;51.05;48.42;;;;;;;;;;5032028;28;20490;-63
2023/06/20 05:54:24;;;;;;;47.35;44.78;;;;;;;;;;5033847;28;20045;-64
2023/06/20 05:56:50;;;;;;;51.28;48.58;;;;;;;;;;5031496;28;20033;-64
2023/06/20 05:59:16;;;;;;;53.97;51.10;;;;;;;;;;5033154;28;20675;-65
2023/06/20 06:01:41;;;;;;;36.88;34.67;;;;;;;;;;5032409;28;20036;-65
2023/06/20 06:04:07;;;;;;;38.33;36.30;;;;;;;;;;5030574;28;20124;-65
2023/06/20 06:06:32;;;;;;;45.80;43.30;;;;;;;;;;5030684;28;20043;-65
2023/06/20 06:08:58;;;;;;;47.47;44.97;;;;;;;;;;5032071;28;20041;-65
2023/06/20 06:11:23;;;;;;;39.35;37.25;;;;;;;;;;5032318;28;20049;-65
2023/06/20 06:13:49;;;;;;;38.80;36.55;;;;;;;;;;5035036;28;20041;-65
2023/06/20 06:16:15;;;;;;;39.17;37.13;;;;;;;;;;5031735;28;20040;-65
2023/06/20 06:18:40;;;;;;;37.50;35.53;;;;;;;;;;5032728;28;20037;-65
2023/06/20 06:21:05;;;;;;;43.55;41.15;;;;;;;;;;5033566;28;20049;-65
2023/06/20 06:23:31;;;;;;;43.10;40.35;;;;;;;;;;5034315;28;20106;-75
2023/06/20 06:25:56;;;;;;;41.90;39.70;;;;;;;;;;5033245;28;20108;-65
2023/06/20 06:28:23;;;;;;;48.92;46.40;;;;;;;;;;5035678;28;20527;-65
2023/06/20 06:30:49;;;;;;;48.63;45.92;;;;;;;;;;5032398;28;20105;-74
2023/06/20 06:33:14;;;;;;;46.35;43.28;;;;;;;;;;5032460;28;20455;-75
2023/06/20 06:35:40;;;;;;;47.22;44.67;;;;;;;;;;5033085;28;20483;-65
2023/06/20 06:38:06;;;;;;;48.22;45.58;;;;;;;;;;5031372;28;20040;-65
2023/06/20 06:40:31;;;;;;;44.42;42.03;;;;;;;;;;5033650;28;20432;-64
2023/06/20 06:42:57;;;;;;;41.38;39.22;;;;;;;;;;5032388;28;20351;-66
2023/06/20 06:45:22;;;;;;;38.70;36.63;;;;;;;;;;5032724;28;20038;-65
2023/06/20 06:47:48;;;;;;;39.25;37.20;;;;;;;;;;5033982;28;20044;-74
2023/06/20 06:50:14;;;;;;;40.80;38.60;;;;;;;;;;5030917;28;20029;-66
2023/06/20 06:52:40;;;;;;;41.03;38.92;;;;;;;;;;5031100;28;20427;-75
2023/06/20 06:55:05;;;;;;;37.90;35.80;;;;;;;;;;5032783;28;20033;-65
2023/06/20 06:57:31;;;;;;;40.45;38.28;;;;;;;;;;5035184;28;20081;-65
2023/06/20 06:59:56;;;;;;;41.92;39.72;;;;;;;;;;5034814;28;20127;-65
2023/06/20 07:02:22;;;;;;;37.58;35.58;;;;;;;;;;5030833;28;20039;-65
2023/06/20 07:04:47;;;;;;;30.58;28.90;;;;;;;;;;5034534;28;20032;-66
2023/06/20 07:07:13;;;;;;;31.58;29.90;;;;;;;;;;5031360;28;20138;-65
2023/06/20 07:09:38;;;;;;;31.27;29.55;;;;;;;;;;5030813;28;20037;-74
2023/06/20 07:12:07;;;;;;;29.77;27.98;;;;;;;;;;5028594;28;20107;-74
2023/06/20 07:14:33;;;;;;;30.30;28.63;;;;;;;;;;5031682;28;20394;-65
2023/06/20 07:16:59;;;;;;;30.65;28.70;;;;;;;;;;5033408;28;20112;-64
2023/06/20 07:19:25;;;;;;;31.73;29.92;;;;;;;;;;5015695;28;20127;-64
2023/06/20 07:21:50;;;;;;;52.47;49.78;;;;;;;;;;5031296;28;20032;-65
2023/06/20 07:24:15;;;;;;;49.80;47.17;;;;;;;;;;5037699;28;20090;-65
2023/06/20 07:26:41;;;;;;;86.60;82.20;;;;;;;;;;5036203;28;20463;-75
2023/06/20 07:29:06;;;;;;;105.43;100.03;;;;;;;;;;5035311;28;20481;-75
2023/06/20 07:31:31;;;;;;;114.55;108.88;;;;;;;;;;5036475;28;20033;-75
2023/06/20 07:33:57;;;;;;;133.70;126.80;;;;;;;;;;5034938;28;20400;-75
2023/06/20 07:36:22;;;;;;;160.65;152.70;;;;;;;;;;5035485;28;20056;-74
2023/06/20 07:38:47;;;;;;;147.65;140.25;;;;;;;;;;5033094;28;20033;-64
2023/06/20 07:41:12;;;;;;;197.95;188.27;;;;;;;;;;5036308;28;20053;-65
2023/06/20 07:43:38;;;;;;;244.00;232.15;;;;;;;;;;5037908;28;20315;-63
2023/06/20 07:46:03;;;;;;;263.35;250.50;;;;;;;;;;5037769;28;20040;-63
2023/06/20 07:48:29;;;;;;;203.88;193.70;;;;;;;;;;5037622;28;20043;-62
2023/06/20 07:50:55;;;;;;;208.75;198.45;;;;;;;;;;5038275;28;20061;-62
2023/06/20 07:53:20;;;;;;;219.70;208.88;;;;;;;;;;5038111;28;20049;-62
2023/06/20 07:55:46;;;;;;;226.73;215.63;;;;;;;;;;5033406;28;20436;-73
2023/06/20 07:58:11;;;;;;;167.55;159.05;;;;;;;;;;5032704;28;20037;-74
2023/06/20 08:00:36;;;;;;;216.77;206.23;;;;;;;;;;5036366;28;20029;-63
2023/06/20 08:03:02;;;;;;;202.82;192.77;;;;;;;;;;5032102;28;20146;-63
2023/06/20 08:05:27;;;;;;;214.07;203.60;;;;;;;;;;5036519;28;20038;-63
2023/06/20 08:07:52;;;;;;;168.45;160.00;;;;;;;;;;5035943;28;20454;-73
2023/06/20 08:10:18;;;;;;;253.98;241.60;;;;;;;;;;5034785;28;20029;-74
2023/06/20 08:12:43;;;;;;;336.27;319.40;;;;;;;;;;5036205;28;20037;-64
2023/06/20 08:15:09;;;;;;;325.85;309.65;;;;;;;;;;5032457;28;20456;-73
2023/06/20 08:17:35;;;;;;;398.70;378.33;;;;;;;;;;5034409;28;20234;-71
2023/06/20 08:20:00;;;;;;;327.50;311.00;;;;;;;;;;5036516;28;20032;-63
2023/06/20 08:22:26;;;;;;;397.83;377.45;;;;;;;;;;5036732;28;20366;-63
2023/06/20 08:24:52;;;;;;;385.02;365.58;;;;;;;;;;5034125;28;20041;-74
2023/06/20 08:27:17;;;;;;;384.42;364.73;;;;;;;;;;5032251;28;20052;-74
2023/06/20 08:29:43;;;;;;;413.92;392.60;;;;;;;;;;5032945;28;20287;-75
2023/06/20 08:32:08;;;;;;;379.75;360.30;;;;;;;;;;5034905;28;20434;-75
2023/06/20 08:34:33;;;;;;;396.08;375.85;;;;;;;;;;5033041;28;20282;-63
2023/06/20 08:36:59;;;;;;;437.30;414.15;;;;;;;;;;5034274;28;20087;-63
2023/06/20 08:39:24;;;;;;;417.50;395.98;;;;;;;;;;5033250;28;20064;-63
2023/06/20 08:41:50;;;;;;;419.13;397.42;;;;;;;;;;5037626;28;20462;-75
2023/06/20 08:44:16;;;;;;;423.23;401.27;;;;;;;;;;5038324;28;20074;-75
2023/06/20 08:46:41;;;;;;;400.65;380.23;;;;;;;;;;5034959;28;20508;-63
2023/06/20 08:49:07;;;;;;;366.05;347.52;;;;;;;;;;5034787;28;20044;-63
2023/06/20 08:51:36;;;;;;;394.65;374.42;;;;;;;;;;5034218;28;20037;-62
2023/06/20 08:54:03;;;;;;;335.47;318.70;;;;;;;;;;5033293;28;20474;-72
2023/06/20 08:56:28;;;;;;;354.83;336.73;;;;;;;;;;5034753;28;20028;-72
2023/06/20 08:58:53;;;;;;;345.38;328.08;;;;;;;;;;5038140;28;20349;-70
2023/06/20 09:01:19;;;;;;;308.35;293.05;;;;;;;;;;5034239;28;20045;-75
2023/06/20 09:03:44;;;;;;;300.15;285.40;;;;;;;;;;5035126;28;20095;-71
2023/06/20 09:06:10;;;;;;;265.67;252.70;;;;;;;;;;5034438;28;20038;-62
2023/06/20 09:08:40;;;;;;;214.43;203.95;;;;;;;;;;5034465;28;20368;-71
2023/06/20 09:11:11;;;;;;;194.38;184.88;;;;;;;;;;5034786;28;20045;-70
2023/06/20 09:13:37;;;;;;;157.40;149.60;;;;;;;;;;5036150;28;20037;-69
2023/06/20 09:16:09;;;;;;;202.02;191.73;;;;;;;;;;5033589;28;20033;-71
2023/06/20 09:18:35;;;;;;;136.30;129.50;;;;;;;;;;5035502;28;20076;-71
2023/06/20 09:21:04;;;;;;;129.45;123.00;;;;;;;;;;5032672;28;20403;-73
2023/06/20 09:23:31;;;;;;;126.00;119.80;;;;;;;;;;5031463;28;20514;-71
2023/06/20 09:26:13;;;;;;;119.18;113.22;;;;;;;;;;5033515;28;20038;-74
2023/06/20 09:28:39;;;;;;;118.47;112.50;;;;;;;;;;5033017;28;20064;-62
2023/06/20 09:31:04;;;;;;;113.70;108.03;;;;;;;;;;5034025;28;20604;-72
2023/06/20 09:33:30;;;;;;;106.28;100.97;;;;;;;;;;5034345;28;20462;-72
2023/06/20 09:36:12;;;;;;;105.68;100.22;;;;;;;;;;5035403;28;20224;-73
2023/06/20 09:38:44;;;;;;;104.85;99.65;;;;;;;;;;5033925;28;20029;-73
2023/06/20 09:41:14;;;;;;;103.22;98.10;;;;;;;;;;5033402;28;20052;-73
2023/06/20 09:43:39;;;;;;;116.63;110.80;;;;;;;;;;5034419;28;20606;-61
2023/06/20 09:46:05;;;;;;;121.47;115.38;;;;;;;;;;5032245;28;20467;-74
2023/06/20 09:48:32;;;;;;;110.72;105.22;;;;;;;;;;5032588;28;20524;-73
2023/06/20 09:51:00;;;;;;;132.25;125.43;;;;;;;;;;5034089;28;20482;-74
2023/06/20 09:53:27;;;;;;;137.77;130.90;;;;;;;;;;5033649;28;20051;-62
2023/06/20 09:55:55;;;;;;;141.52;134.52;;;;;;;;;;5031472;28;20044;-74
2023/06/20 09:58:23;;;;;;;148.80;141.32;;;;;;;;;;5034745;28;20037;-75
2023/06/20 10:00:50;;;;;;;105.60;100.32;;;;;;;;;;5032791;28;20052;-61
2023/06/20 10:03:16;;;;;;;95.93;91.05;;;;;;;;;;5036135;28;20439;-59
2023/06/20 10:05:45;;;;;;;106.30;100.97;;;;;;;;;;5033618;28;20296;-61
2023/06/20 10:08:11;;;;;;;102.10;97.05;;;;;;;;;;5034733;28;20247;-61
2023/06/20 10:10:36;;;;;;;76.35;72.45;;;;;;;;;;5031968;28;20056;-61
2023/06/20 10:13:04;;;;;;;97.57;92.72;;;;;;;;;;5032014;28;20523;-62
2023/06/20 10:15:29;;;;;;;85.88;81.57;;;;;;;;;;5034880;28;20039;-63
2023/06/20 10:17:55;;;;;;;97.47;92.57;;;;;;;;;;5034251;28;20368;-62
2023/06/20 10:20:34;;;;;;;56.42;53.55;;;;;;;;;;5033311;28;20402;-62
2023/06/20 10:23:05;;;;;;;46.90;44.47;;;;;;;;;;5032280;28;20032;-69
2023/06/20 10:25:31;;;;;;;48.47;45.78;;;;;;;;;;5041058;28;20546;-71
2023/06/20 10:27:58;;;;;;;45.50;43.10;;;;;;;;;;5031356;28;20044;-62
2023/06/20 10:30:46;;;;;;;76.32;72.50;;;;;;;;;;5030505;28;20040;-65
2023/06/20 10:33:11;;;;;;;50.35;47.75;;;;;;;;;;5032784;28;20252;-63
2023/06/20 10:35:59;;;;;;;111.53;106.03;;;;;;;;;;5034169;28;20523;-61
2023/06/20 10:38:28;;;;;;;123.75;117.60;;;;;;;;;;5031482;28;20037;-62
2023/06/20 10:41:29;;;;;;;113.00;107.40;;;;;;;;;;5030615;28;20087;-61
2023/06/20 10:43:59;;;;;;;73.60;69.93;;;;;;;;;;5002038;28;20042;-62
2023/06/20 10:46:27;;;;;;;;;;;;;;;;;;5029657;28;20041;-62
2023/06/20 10:48:52;;;;;;;115.53;109.82;;;;;;;;;;5036938;28;19916;-62
2023/06/20 10:51:18;;;;;;;140.25;133.30;;;;;;;;;;5034235;28;20036;-62
2023/06/20 10:53:43;;;;;;;96.90;92.10;;;;;;;;;;5031890;28;20025;-64
2023/06/20 10:56:21;;;;;;;136.98;130.05;;;;;;;;;;5033300;28;20041;-74
2023/06/20 10:58:48;;;;;;;130.25;123.57;;;;;;;;;;5036465;28;20041;-64
2023/06/20 11:01:16;;;;;;;102.30;97.13;;;;;;;;;;5036176;28;20043;-69
2023/06/20 11:03:41;;;;;;;89.70;85.20;;;;;;;;;;5038291;28;20044;-73
2023/06/20 11:06:07;;;;;;;64.72;61.10;;;;;;;;;;5036272;28;20041;-72
2023/06/20 11:08:32;;;;;;;101.13;95.97;;;;;;;;;;5036327;28;20025;-73
2023/06/20 11:10:57;;;;;;;96.35;91.50;;;;;;;;;;5036361;28;20033;-73
2023/06/20 11:13:23;;;;;;;73.88;70.05;;;;;;;;;;5034133;28;20090;-65
2023/06/20 11:15:49;;;;;;;62.90;59.70;;;;;;;;;;5035968;28;20421;-74
2023/06/20 11:18:14;;;;;;;67.20;63.83;;;;;;;;;;5037315;28;20044;-74
2023/06/20 11:20:41;;;;;;;40.95;38.85;;;;;;;;;;5035774;28;20056;-71
2023/06/20 11:23:12;;;;;;;69.35;65.80;;;;;;;;;;5036292;28;20068;-69
2023/06/20 11:25:41;;;;;;;69.18;65.68;;;;;;;;;;5037900;28;20463;-72
2023/06/20 11:28:14;;;;;;;44.78;42.35;;;;;;;;;;5036649;28;20398;-73
2023/06/20 11:30:42;;;;;;;44.30;42.00;;;;;;;;;;5035186;28;20041;-74
2023/06/20 11:33:08;;;;;;;28.27;26.70;;;;;;;;;;5033086;28;20099;-74
2023/06/20 11:35:54;;;;;;;30.85;29.25;;;;;;;;;;5034921;28;20037;-73
2023/06/20 11:38:24;;;;;;;30.33;28.73;;;;;;;;;;5033768;28;20368;-75
2023/06/20 11:41:08;;;;;;;25.20;23.80;;;;;;;;;;5037071;28;20040;-74
2023/06/20 11:43:42;;;;;;;23.90;22.60;;;;;;;;;;5038421;28;20336;-74
2023/06/20 11:46:08;;;;;;;24.58;23.17;;;;;;;;;;5034245;28;20053;-74
2023/06/20 11:48:35;;;;;;;26.15;24.75;;;;;;;;;;5038056;28;20033;-75
2023/06/20 11:51:06;;;;;;;22.30;21.10;;;;;;;;;;5037538;28;20041;-73
2023/06/20 11:53:36;;;;;;;22.27;20.88;;;;;;;;;;5036836;28;20053;-74
2023/06/20 11:56:10;;;;;;;25.23;23.83;;;;;;;;;;5035881;28;20056;-75
2023/06/20 11:58:40;;;;;;;22.90;21.70;;;;;;;;;;5036006;28;20029;-74
2023/06/20 12:01:13;;;;;;;24.88;23.48;;;;;;;;;;5035087;28;20106;-75
2023/06/20 12:03:41;;;;;;;30.05;28.45;;;;;;;;;;5037641;28;20037;-74
2023/06/20 12:06:28;;;;;;;24.58;23.17;;;;;;;;;;5035564;28;20048;-73
2023/06/20 12:08:58;;;;;;;20.25;19.15;;;;;;;;;;5031145;28;20030;-74
2023/06/20 12:11:25;;;;;;;19.90;18.80;;;;;;;;;;5034038;28;20033;-72
2023/06/20 12:13:52;;;;;;;17.33;16.33;;;;;;;;;;5035400;28;20029;-74
2023/06/20 12:16:21;;;;;;;17.70;16.70;;;;;;;;;;5035453;28;20036;-72
2023/06/20 12:18:48;;;;;;;18.10;17.00;;;;;;;;;;5033695;28;20045;-73
2023/06/20 12:21:13;;;;;;;18.30;17.27;;;;;;;;;;5034284;28;20110;-74
2023/06/20 12:23:38;;;;;;;22.08;20.88;;;;;;;;;;5034342;28;20623;-74
2023/06/20 12:26:04;;;;;;;19.30;18.20;;;;;;;;;;5035465;28;20478;-73
2023/06/20 12:28:30;;;;;;;18.40;17.35;;;;;;;;;;5033849;28;20466;-72
2023/06/20 12:30:56;;;;;;;17.58;16.58;;;;;;;;;;5032371;28;20371;-72
2023/06/20 12:33:21;;;;;;;18.98;17.88;;;;;;;;;;5035278;28;20045;-72
2023/06/20 12:35:47;;;;;;;19.23;18.13;;;;;;;;;;5035948;28;20068;-72
2023/06/20 12:38:12;;;;;;;19.85;18.75;;;;;;;;;;5036174;28;20030;-72
2023/06/20 12:40:37;;;;;;;21.52;20.23;;;;;;;;;;5034422;28;20464;-73
2023/06/20 12:43:05;;;;;;;23.10;21.80;;;;;;;;;;5033162;28;20404;-73
2023/06/20 12:45:30;;;;;;;21.17;19.98;;;;;;;;;;5034165;28;20057;-75
2023/06/20 12:47:56;;;;;;;20.80;19.70;;;;;;;;;;5032937;28;20372;-75
2023/06/20 12:50:21;;;;;;;24.10;22.63;;;;;;;;;;5036340;28;20051;-77
2023/06/20 12:52:46;;;;;;;20.02;18.92;;;;;;;;;;5037677;28;20040;-76
2023/06/20 12:55:13;;;;;;;22.70;21.50;;;;;;;;;;5033660;28;20124;-64
2023/06/20 12:57:39;;;;;;;20.83;19.73;;;;;;;;;;5035714;28;20025;-75
2023/06/20 13:00:05;;;;;;;22.90;21.60;;;;;;;;;;5036804;28;20044;-75
2023/06/20 13:02:31;;;;;;;22.50;21.20;;;;;;;;;;5035007;28;20502;-75
2023/06/20 13:04:56;;;;;;;25.40;23.98;;;;;;;;;;5034844;28;20029;-73
2023/06/20 13:07:23;;;;;;;23.65;22.35;;;;;;;;;;5034689;28;20366;-74
2023/06/20 13:09:49;;;;;;;23.70;22.40;;;;;;;;;;5040569;28;20044;-73
2023/06/20 13:12:15;;;;;;;20.90;19.70;;;;;;;;;;5036279;28;20065;-70
2023/06/20 13:14:43;;;;;;;25.05;23.33;;;;;;;;;;5033703;28;20063;-67
2023/06/20 13:17:12;;;;;;;25.30;23.90;;;;;;;;;;5032718;28;20118;-70
2023/06/20 13:19:37;;;;;;;24.52;23.23;;;;;;;;;;5036900;28;20038;-70
2023/06/20 13:22:03;;;;;;;24.85;23.55;;;;;;;;;;5034876;28;20036;-62
2023/06/20 13:24:29;;;;;;;23.13;21.83;;;;;;;;;;5033152;28;20263;-61
2023/06/20 13:26:55;;;;;;;24.15;22.83;;;;;;;;;;5032949;28;20475;-61
2023/06/20 13:29:21;;;;;;;20.15;19.05;;;;;;;;;;5032343;28;20427;-61
2023/06/20 13:31:47;;;;;;;21.45;20.25;;;;;;;;;;5034696;28;20038;-70
2023/06/20 13:34:12;;;;;;;20.50;19.40;;;;;;;;;;5034407;28;20430;-71
2023/06/20 13:36:37;;;;;;;20.98;19.77;;;;;;;;;;5031437;28;20044;-61
2023/06/20 13:39:03;;;;;;;20.30;19.17;;;;;;;;;;5033670;28;20148;-69
2023/06/20 13:41:29;;;;;;;21.52;20.33;;;;;;;;;;5034473;28;20041;-60
2023/06/20 13:43:54;;;;;;;22.35;21.15;;;;;;;;;;5041757;28;20554;-70
2023/06/20 13:46:20;;;;;;;23.65;22.27;;;;;;;;;;5033167;28;20030;-69
2023/06/20 13:48:47;;;;;;;20.05;18.95;;;;;;;;;;5036588;28;20078;-62
2023/06/20 13:51:14;;;;;;;21.92;20.73;;;;;;;;;;5032638;28;20714;-70
2023/06/20 13:53:40;;;;;;;22.38;21.17;;;;;;;;;;5030569;28;20576;-58
2023/06/20 13:56:06;;;;;;;19.60;18.50;;;;;;;;;;5035183;28;20064;-58
2023/06/20 13:58:31;;;;;;;17.65;16.65;;;;;;;;;;5034774;28;20036;-58
2023/06/20 14:00:57;;;;;;;21.70;20.40;;;;;;;;;;5035925;28;20033;-68
2023/06/20 14:03:22;;;;;;;21.33;20.13;;;;;;;;;;5031251;28;20123;-58
2023/06/20 14:05:47;;;;;;;19.77;18.67;;;;;;;;;;5037525;28;20068;-69
2023/06/20 14:08:13;;;;;;;19.45;18.35;;;;;;;;;;5035683;28;20057;-68